createdAt,value
2018-02-19T00:00:19.225Z,3.5
2018-02-19T00:02:19.004Z,9.3
2018-02-19T00:04:18.777Z,5.3
2018-02-19T00:06:18.895Z,4.9
2018-02-19T00:08:19.642Z,4.2
2018-02-19T00:10:18.950Z,5.4
2018-02-19T00:12:18.715Z,5.6
2018-02-19T00:14:19.510Z,10
2018-02-19T00:16:19.070Z,4.9
2018-02-19T00:18:18.910Z,3.3
2018-02-19T00:20:19.711Z,10.4
2018-02-19T00:22:19.474Z,9.5
2018-02-19T00:24:19.244Z,7.7
2018-02-19T00:26:18.702Z,6.9
2018-02-19T00:28:19.472Z,6.6
2018-02-19T00:30:19.298Z,4.2
2018-02-19T00:32:19.617Z,5.9
2018-02-19T00:34:19.377Z,6.8
2018-02-19T00:36:18.949Z,2.8
2018-02-19T00:38:18.728Z,14.8
2018-02-19T00:40:18.971Z,9.5
2018-02-19T00:42:18.765Z,5.2
2018-02-19T00:44:19.524Z,4.8
2018-02-19T00:46:19.141Z,6.5
2018-02-19T00:48:18.927Z,5.5
2018-02-19T00:50:18.835Z,9.9
2018-02-19T00:52:19.588Z,16
2018-02-19T00:54:19.315Z,8.9
2018-02-19T00:56:19.389Z,4.1
2018-02-19T00:58:19.135Z,6
2018-02-19T01:00:18.895Z,7.2
2018-02-19T01:02:19.668Z,4.6
2018-02-19T01:04:19.416Z,6.7
2018-02-19T01:06:19.155Z,5.9
2018-02-19T01:08:18.937Z,5.5
2018-02-19T01:10:19.257Z,6.5
2018-02-19T01:12:19.019Z,9.8
2018-02-19T01:14:18.781Z,4.9
2018-02-19T01:16:19.312Z,4.8
2018-02-19T01:18:19.165Z,6.2
2018-02-19T01:20:18.903Z,4.5
2018-02-19T01:22:19.670Z,6.1
2018-02-19T01:24:19.443Z,7.2
2018-02-19T01:26:19.570Z,8
2018-02-19T01:28:19.327Z,4.7
2018-02-19T01:30:19.094Z,4.3
2018-02-19T01:32:18.841Z,4
2018-02-19T01:34:19.908Z,6.2
2018-02-19T01:36:19.017Z,3.1
2018-02-19T01:38:18.782Z,7.6
2018-02-19T01:40:19.059Z,7.5
2018-02-19T01:42:18.812Z,6.7
2018-02-19T01:44:19.550Z,9.5
2018-02-19T01:46:19.618Z,9.8
2018-02-19T01:48:19.376Z,9.8
2018-02-19T01:50:19.195Z,3.8
2018-02-19T01:52:18.957Z,8.6
2018-02-19T01:54:18.774Z,5.5
2018-02-19T01:56:19.389Z,8
2018-02-19T01:58:19.167Z,7.4
2018-02-19T02:00:18.989Z,8.4
2018-02-19T02:02:18.736Z,5
2018-02-19T02:04:19.511Z,7.9
2018-02-19T02:06:19.214Z,4.5
2018-02-19T02:08:18.990Z,3.4
2018-02-19T02:10:19.328Z,6.4
2018-02-19T02:12:19.057Z,7.2
2018-02-19T02:14:18.828Z,4.8
2018-02-19T02:16:19.364Z,6.8
2018-02-19T02:18:19.230Z,4.1
2018-02-19T02:20:19.019Z,7.5
2018-02-19T02:22:18.778Z,8.2
2018-02-19T02:24:19.551Z,4.6
2018-02-19T02:26:19.620Z,3.9
2018-02-19T02:28:19.368Z,3.4
2018-02-19T02:30:19.145Z,3.1
2018-02-19T02:32:18.914Z,8.8
2018-02-19T02:34:19.680Z,9.2
2018-02-19T02:36:18.765Z,8.3
2018-02-19T02:38:19.515Z,5.2
2018-02-19T02:40:18.727Z,8
2018-02-19T02:42:19.503Z,5.1
2018-02-19T02:44:19.291Z,6.3
2018-02-19T02:46:19.405Z,5.3
2018-02-19T02:48:19.166Z,4.2
2018-02-19T02:50:18.943Z,8
2018-02-19T02:52:18.728Z,3.1
2018-02-19T02:54:19.512Z,7.6
2018-02-19T02:56:19.553Z,3.6
2018-02-19T02:58:19.321Z,6
2018-02-19T03:00:19.114Z,5.9
2018-02-19T03:02:18.866Z,7.3
2018-02-19T03:04:19.624Z,3.7
2018-02-19T03:06:18.985Z,4.3
2018-02-19T03:08:18.754Z,7.9
2018-02-19T03:10:19.006Z,6.5
2018-02-19T03:12:18.759Z,3.5
2018-02-19T03:14:19.513Z,6.4
2018-02-19T03:16:19.160Z,12.4
2018-02-19T03:18:18.990Z,3.3
2018-02-19T03:20:18.752Z,7.1
2018-02-19T03:22:19.546Z,8
2018-02-19T03:24:19.322Z,5.9
2018-02-19T03:26:19.403Z,6.6
2018-02-19T03:28:19.154Z,8.9
2018-02-19T03:30:18.903Z,6
2018-02-19T03:32:19.664Z,7.5
2018-02-19T03:34:19.437Z,5.6
2018-02-19T03:36:18.956Z,5.6
2018-02-19T03:38:18.727Z,11.8
2018-02-19T03:40:18.987Z,4.6
2018-02-19T03:42:18.740Z,8.6
2018-02-19T03:44:19.514Z,7
2018-02-19T03:46:19.070Z,6
2018-02-19T03:48:18.856Z,3.4
2018-02-19T03:50:19.625Z,5.3
2018-02-19T03:52:19.383Z,8.1
2018-02-19T03:54:19.113Z,5.9
2018-02-19T03:56:18.672Z,5
2018-02-19T03:58:19.492Z,6.9
2018-02-19T04:00:19.260Z,6.8
2018-02-19T04:02:19.020Z,7.3
2018-02-19T04:04:18.797Z,5.3
2018-02-19T04:06:19.429Z,10.6
2018-02-19T04:08:19.201Z,5.5
2018-02-19T04:10:19.438Z,5.6
2018-02-19T04:12:19.201Z,8.9
2018-02-19T04:14:18.989Z,5.8
2018-02-19T04:16:19.046Z,8.2
2018-02-19T04:18:18.889Z,10.2
2018-02-19T04:20:19.612Z,8
2018-02-19T04:22:19.398Z,4.8
2018-02-19T04:24:19.149Z,5.3
2018-02-19T04:26:19.377Z,10.5
2018-02-19T04:28:19.136Z,5.1
2018-02-19T04:30:18.888Z,4.5
2018-02-19T04:32:19.662Z,10.6
2018-02-19T04:34:19.445Z,8.9
2018-02-19T04:36:19.033Z,6.5
2018-02-19T04:38:18.792Z,12
2018-02-19T04:40:19.035Z,7.5
2018-02-19T04:42:18.790Z,7.8
2018-02-19T04:44:19.556Z,9.2
2018-02-19T04:46:19.623Z,8.8
2018-02-19T04:48:19.361Z,5.7
2018-02-19T04:50:19.126Z,8.5
2018-02-19T04:52:18.858Z,11
2018-02-19T04:54:19.631Z,5.9
2018-02-19T04:56:19.152Z,6
2018-02-19T04:58:18.911Z,6.6
2018-02-19T05:00:19.672Z,10.5
2018-02-19T05:02:19.408Z,8.7
2018-02-19T05:04:19.156Z,7.7
2018-02-19T05:06:19.203Z,7.4
2018-02-19T05:08:18.945Z,7.3
2018-02-19T05:10:19.175Z,7.3
2018-02-19T05:12:18.924Z,6.1
2018-02-19T05:14:19.691Z,6.2
2018-02-19T05:16:19.288Z,8.1
2018-02-19T05:18:19.112Z,13.2
2018-02-19T05:20:18.875Z,7.8
2018-02-19T05:22:19.639Z,6.2
2018-02-19T05:24:19.379Z,7.3
2018-02-19T05:26:19.441Z,8.3
2018-02-19T05:28:19.201Z,10.3
2018-02-19T05:30:18.959Z,12.6
2018-02-19T05:32:18.726Z,11.1
2018-02-19T05:34:19.464Z,8.8
2018-02-19T05:36:19.014Z,11.6
2018-02-19T05:38:18.789Z,7.5
2018-02-19T05:40:19.036Z,8.9
2018-02-19T05:42:18.788Z,7.9
2018-02-19T05:44:19.570Z,7.9
2018-02-19T05:46:19.126Z,6.3
2018-02-19T05:48:18.857Z,13.3
2018-02-19T05:50:19.610Z,4.8
2018-02-19T05:52:19.399Z,6.7
2018-02-19T05:54:19.175Z,5.9
2018-02-19T05:56:19.285Z,4.9
2018-02-19T05:58:19.047Z,9.5
2018-02-19T06:00:18.800Z,9.1
2018-02-19T06:02:19.542Z,10.1
2018-02-19T06:04:19.286Z,13.9
2018-02-19T06:06:19.353Z,9.1
2018-02-19T06:08:19.121Z,8
2018-02-19T06:10:19.437Z,9.8
2018-02-19T06:12:19.211Z,5.7
2018-02-19T06:14:18.957Z,9.5
2018-02-19T06:16:19.620Z,4.7
2018-02-19T06:18:19.463Z,12.5
2018-02-19T06:20:19.204Z,8.4
2018-02-19T06:22:18.989Z,9.9
2018-02-19T06:24:18.739Z,9.8
2018-02-19T06:26:19.365Z,9.5
2018-02-19T06:28:19.130Z,13.2
2018-02-19T06:30:19.008Z,7.3
2018-02-19T06:32:18.814Z,11.5
2018-02-19T06:34:19.596Z,10.8
2018-02-19T06:36:19.668Z,9.9
2018-02-19T06:38:19.420Z,9.7
2018-02-19T06:40:19.674Z,10.5
2018-02-19T06:42:19.444Z,7.2
2018-02-19T06:44:19.206Z,10.5
2018-02-19T06:46:18.861Z,19.4
2018-02-19T06:48:19.634Z,6.3
2018-02-19T06:50:19.380Z,9.4
2018-02-19T06:52:19.123Z,10.7
2018-02-19T06:54:18.865Z,8.7
2018-02-19T06:56:19.439Z,10.8
2018-02-19T06:58:19.221Z,9.2
2018-02-19T07:00:18.978Z,8.7
2018-02-19T07:02:18.734Z,7.5
2018-02-19T07:04:19.489Z,14.4
2018-02-19T07:06:19.031Z,9
2018-02-19T07:08:18.791Z,13.4
2018-02-19T07:10:18.995Z,11.5
2018-02-19T07:12:18.753Z,6.9
2018-02-19T07:14:19.530Z,9.3
2018-02-19T07:16:19.607Z,8.7
2018-02-19T07:18:19.439Z,15.3
2018-02-19T07:20:19.198Z,19.8
2018-02-19T07:22:18.962Z,10.3
2018-02-19T07:24:18.749Z,14.1
2018-02-19T07:26:19.410Z,12.6
2018-02-19T07:28:19.190Z,22.1
2018-02-19T07:30:18.964Z,9.6
2018-02-19T07:32:18.726Z,8.6
2018-02-19T07:34:19.530Z,17.8
2018-02-19T07:36:19.076Z,13.5
2018-02-19T07:38:18.852Z,11.3
2018-02-19T07:40:19.095Z,6.2
2018-02-19T07:42:18.855Z,8.2
2018-02-19T07:44:19.640Z,10.2
2018-02-19T07:46:19.185Z,17.6
2018-02-19T07:48:18.930Z,8.5
2018-02-19T07:50:19.800Z,15.9
2018-02-19T07:52:19.555Z,16.4
2018-02-19T07:54:19.364Z,10.9
2018-02-19T07:56:19.490Z,9.7
2018-02-19T07:58:19.235Z,18.6
2018-02-19T08:00:19.072Z,13.8
2018-02-19T08:02:18.816Z,8.9
2018-02-19T08:04:19.580Z,8.8
2018-02-19T08:06:19.133Z,13.3
2018-02-19T08:08:18.880Z,14.8
2018-02-19T08:10:19.095Z,16.2
2018-02-19T08:12:18.857Z,13.1
2018-02-19T08:14:19.598Z,20.4
2018-02-19T08:16:18.793Z,13
2018-02-19T08:18:19.730Z,12.8
2018-02-19T08:20:19.566Z,9.9
2018-02-19T08:22:19.352Z,22.1
2018-02-19T08:24:19.127Z,14.1
2018-02-19T08:26:19.651Z,17
2018-02-19T08:28:19.406Z,10
2018-02-19T08:30:19.179Z,18.1
2018-02-19T08:32:18.936Z,12.7
2018-02-19T08:34:18.672Z,13.1
2018-02-19T08:36:18.728Z,18.6
2018-02-19T08:38:19.493Z,16.2
2018-02-19T08:40:18.723Z,13.3
2018-02-19T08:42:19.500Z,13.2
2018-02-19T08:44:19.271Z,13.7
2018-02-19T08:46:19.332Z,12.6
2018-02-19T08:48:19.075Z,15.3
2018-02-19T08:50:18.838Z,22.3
2018-02-19T08:52:19.609Z,14
2018-02-19T08:54:19.371Z,12.8
2018-02-19T08:56:19.466Z,15.2
2018-02-19T08:58:19.232Z,22.7
2018-02-19T09:00:18.977Z,16.2
2018-02-19T09:02:18.719Z,17.6
2018-02-19T09:04:19.492Z,12.2
2018-02-19T09:06:19.053Z,17.8
2018-02-19T09:08:18.799Z,21.5
2018-02-19T09:10:19.117Z,13.7
2018-02-19T09:12:18.922Z,14.3
2018-02-19T09:14:19.661Z,12.7
2018-02-19T09:16:18.712Z,17
2018-02-19T09:18:19.560Z,18.7
2018-02-19T09:20:19.333Z,13.3
2018-02-19T09:22:19.116Z,16.7
2018-02-19T09:24:18.872Z,11.4
2018-02-19T09:26:19.392Z,18.9
2018-02-19T09:28:19.202Z,20
2018-02-19T09:30:18.981Z,24.9
2018-02-19T09:32:18.804Z,14.9
2018-02-19T09:34:19.591Z,14
2018-02-19T09:36:19.198Z,16.6
2018-02-19T09:38:18.980Z,19.1
2018-02-19T09:40:19.272Z,12.1
2018-02-19T09:42:19.053Z,17.9
2018-02-19T09:44:18.852Z,13.5
2018-02-19T09:46:19.405Z,13.5
2018-02-19T09:48:19.200Z,17.9
2018-02-19T09:50:18.976Z,16.9
2018-02-19T09:52:18.724Z,17.8
2018-02-19T09:54:19.484Z,17.1
2018-02-19T09:56:19.102Z,14
2018-02-19T09:58:18.867Z,22.8
2018-02-19T10:00:19.629Z,17.1
2018-02-19T10:02:19.386Z,20.8
2018-02-19T10:04:19.155Z,15.9
2018-02-19T10:06:19.231Z,11.4
2018-02-19T10:08:18.987Z,17.9
2018-02-19T10:10:20.023Z,19.8
2018-02-19T10:12:18.785Z,20.7
2018-02-19T10:14:19.569Z,16.3
2018-02-19T10:16:19.182Z,16.1
2018-02-19T10:18:19.025Z,19.2
2018-02-19T10:20:18.849Z,12.6
2018-02-19T10:22:19.628Z,15.3
2018-02-19T10:24:19.466Z,24.1
2018-02-19T10:26:19.534Z,16
2018-02-19T10:28:19.286Z,17.6
2018-02-19T10:30:19.107Z,15.7
2018-02-19T10:32:18.879Z,13.3
2018-02-19T10:34:19.645Z,13.3
2018-02-19T10:36:19.179Z,15.6
2018-02-19T10:38:18.975Z,19.7
2018-02-19T10:40:19.237Z,16.7
2018-02-19T10:42:19.012Z,16.8
2018-02-19T10:44:18.767Z,18.2
2018-02-19T10:46:19.328Z,16.6
2018-02-19T10:48:19.097Z,15.1
2018-02-19T10:50:18.947Z,15.6
2018-02-19T10:52:18.705Z,16
2018-02-19T10:54:19.462Z,19
2018-02-19T10:56:19.053Z,18.7
2018-02-19T10:58:18.847Z,16.3
2018-02-19T11:00:19.642Z,15.4
2018-02-19T11:02:19.402Z,18.4
2018-02-19T11:04:19.171Z,22.6
2018-02-19T11:06:18.881Z,17.3
2018-02-19T11:08:19.642Z,22
2018-02-19T11:10:18.864Z,10.8
2018-02-19T11:12:19.623Z,18.4
2018-02-19T11:14:19.384Z,16.1
2018-02-19T11:16:19.449Z,19.8
2018-02-19T11:18:19.284Z,22.6
2018-02-19T11:20:19.166Z,16.3
2018-02-19T11:22:18.953Z,17.4
2018-02-19T11:24:18.750Z,15.4
2018-02-19T11:26:19.300Z,19.4
2018-02-19T11:28:19.064Z,17.5
2018-02-19T11:30:18.858Z,20.3
2018-02-19T11:32:19.648Z,20.2
2018-02-19T11:34:19.425Z,22
2018-02-19T11:36:18.954Z,17.6
2018-02-19T11:38:18.727Z,11.7
2018-02-19T11:40:18.970Z,16.2
2018-02-19T11:42:18.736Z,27
2018-02-19T11:44:19.491Z,24.3
2018-02-19T11:46:19.588Z,20.3
2018-02-19T11:48:19.355Z,15.9
2018-02-19T11:50:19.091Z,23.9
2018-02-19T11:52:18.845Z,17.6
2018-02-19T11:54:19.617Z,19.4
2018-02-19T11:56:19.150Z,16.7
2018-02-19T11:58:18.910Z,16.4
2018-02-19T12:00:19.703Z,17.8
2018-02-19T12:02:19.480Z,15.8
2018-02-19T12:04:19.239Z,18
2018-02-19T12:06:18.795Z,16.9
2018-02-19T12:08:19.589Z,16.6
2018-02-19T12:10:18.844Z,18.9
2018-02-19T12:12:19.620Z,16.2
2018-02-19T12:14:19.375Z,14.1
2018-02-19T12:16:18.885Z,20
2018-02-19T12:18:18.739Z,12.6
2018-02-19T12:20:19.622Z,16.8
2018-02-19T12:22:19.398Z,14
2018-02-19T12:24:19.166Z,13.1
2018-02-19T12:26:19.301Z,16.6
2018-02-19T12:28:19.097Z,17.8
2018-02-19T12:30:18.879Z,19
2018-02-19T12:32:19.672Z,14.7
2018-02-19T12:34:19.451Z,19.7
2018-02-19T12:36:19.101Z,15.9
2018-02-19T12:38:18.854Z,16.3
2018-02-19T12:40:19.110Z,12.8
2018-02-19T12:42:18.888Z,14.9
2018-02-19T12:44:19.667Z,13.5
2018-02-19T12:46:19.211Z,13.2
2018-02-19T12:48:18.994Z,13.3
2018-02-19T12:50:18.819Z,14.3
2018-02-19T12:52:19.600Z,18.8
2018-02-19T12:54:19.348Z,12.2
2018-02-19T12:56:18.931Z,7.8
2018-02-19T12:58:18.706Z,12
2018-02-19T13:00:19.474Z,13.3
2018-02-19T13:02:19.247Z,16.1
2018-02-19T13:04:18.995Z,14.3
2018-02-19T13:06:19.179Z,11.3
2018-02-19T13:08:18.950Z,13.2
2018-02-19T13:10:19.222Z,22.1
2018-02-19T13:12:19.024Z,11.1
2018-02-19T13:14:18.792Z,15.5
2018-02-19T13:16:19.401Z,11.2
2018-02-19T13:18:19.337Z,12.8
2018-02-19T13:20:19.116Z,11.7
2018-02-19T13:22:18.874Z,12.3
2018-02-19T13:24:19.651Z,11.6
2018-02-19T13:26:18.898Z,23
2018-02-19T13:28:19.688Z,14
2018-02-19T13:30:19.489Z,12.7
2018-02-19T13:32:19.255Z,15.6
2018-02-19T13:34:19.042Z,10.6
2018-02-19T13:36:19.165Z,14.4
2018-02-19T13:38:18.959Z,10.6
2018-02-19T13:40:19.232Z,11.6
2018-02-19T13:42:19.017Z,12
2018-02-19T13:44:18.811Z,13.6
2018-02-19T13:46:18.901Z,11.5
2018-02-19T13:48:19.685Z,13.7
2018-02-19T13:50:19.481Z,9.8
2018-02-19T13:52:19.254Z,13.6
2018-02-19T13:54:19.042Z,11.2
2018-02-19T13:56:19.123Z,8.3
2018-02-19T13:58:18.930Z,13
2018-02-19T14:00:18.705Z,16.8
2018-02-19T14:02:19.463Z,14.8
2018-02-19T14:04:19.222Z,9
2018-02-19T14:06:18.796Z,11.7
2018-02-19T14:08:19.591Z,15.4
2018-02-19T14:10:18.807Z,12.1
2018-02-19T14:12:19.584Z,15.3
2018-02-19T14:14:19.350Z,9.2
2018-02-19T14:16:19.434Z,14.2
2018-02-19T14:18:19.317Z,8.4
2018-02-19T14:20:19.098Z,11.8
2018-02-19T14:22:18.866Z,29.4
2018-02-19T14:24:19.757Z,14
2018-02-19T14:26:19.313Z,12
2018-02-19T14:28:19.101Z,9.6
2018-02-19T14:30:18.913Z,11.6
2018-02-19T14:32:19.698Z,11.6
2018-02-19T14:34:19.497Z,9.8
2018-02-19T14:36:19.060Z,7.5
2018-02-19T14:38:18.833Z,7.5
2018-02-19T14:40:19.066Z,5.8
2018-02-19T14:42:18.834Z,10.2
2018-02-19T14:44:19.624Z,13.1
2018-02-19T14:46:18.802Z,7.8
2018-02-19T14:48:19.576Z,9.5
2018-02-19T14:50:19.344Z,14.7
2018-02-19T14:52:19.133Z,23.3
2018-02-19T14:54:18.893Z,17.9
2018-02-19T14:56:19.468Z,20.8
2018-02-19T14:58:19.238Z,11.6
2018-02-19T15:00:19.017Z,10.3
2018-02-19T15:02:18.791Z,11.1
2018-02-19T15:04:19.586Z,6.8
2018-02-19T15:06:19.679Z,15.6
2018-02-19T15:08:19.450Z,10
2018-02-19T15:10:18.742Z,9.5
2018-02-19T15:12:19.512Z,13
2018-02-19T15:14:19.268Z,11.2
2018-02-19T15:16:19.464Z,23.5
2018-02-19T15:18:19.316Z,10.7
2018-02-19T15:20:19.088Z,10
2018-02-19T15:22:18.850Z,11.9
2018-02-19T15:24:19.645Z,14.4
2018-02-19T15:26:18.745Z,11.8
2018-02-19T15:28:19.517Z,16.2
2018-02-19T15:30:19.309Z,15.2
2018-02-19T15:32:19.082Z,13.6
2018-02-19T15:34:18.859Z,10.2
2018-02-19T15:36:19.409Z,11.4
2018-02-19T15:38:19.218Z,13.7
2018-02-19T15:40:19.463Z,20.9
2018-02-19T15:42:19.258Z,14.3
2018-02-19T15:44:19.038Z,12.3
2018-02-19T15:46:19.660Z,11
2018-02-19T15:48:19.464Z,10.3
2018-02-19T15:50:19.257Z,20.9
2018-02-19T15:52:19.036Z,15.2
2018-02-19T15:54:18.821Z,12
2018-02-19T15:56:19.559Z,10
2018-02-19T15:58:19.336Z,10.4
2018-02-19T16:00:19.122Z,15.1
2018-02-19T16:02:18.872Z,18
2018-02-19T16:04:19.656Z,16.2
2018-02-19T16:06:18.764Z,22
2018-02-19T16:08:19.534Z,8
2018-02-19T16:10:18.806Z,8.9
2018-02-19T16:12:19.570Z,8.8
2018-02-19T16:14:19.332Z,11.2
2018-02-19T16:16:19.400Z,9.5
2018-02-19T16:18:19.264Z,8.6
2018-02-19T16:20:19.030Z,13.8
2018-02-19T16:22:18.811Z,7.4
2018-02-19T16:24:19.587Z,10.6
2018-02-19T16:26:19.143Z,12
2018-02-19T16:28:18.908Z,15.3
2018-02-19T16:30:19.664Z,8.6
2018-02-19T16:32:19.404Z,11.4
2018-02-19T16:34:19.199Z,19
2018-02-19T16:36:18.806Z,17
2018-02-19T16:38:19.576Z,9.8
2018-02-19T16:40:18.794Z,11.6
2018-02-19T16:42:19.587Z,13.1
2018-02-19T16:44:19.366Z,10.3
2018-02-19T16:46:19.563Z,12.8
2018-02-19T16:48:19.325Z,11.1
2018-02-19T16:50:19.202Z,16.5
2018-02-19T16:52:18.987Z,9.9
2018-02-19T16:54:18.763Z,9.3
2018-02-19T16:56:18.834Z,8
2018-02-19T16:58:19.591Z,14.6
2018-02-19T17:00:19.398Z,10.4
2018-02-19T17:02:19.169Z,11.3
2018-02-19T17:04:18.941Z,15.8
2018-02-19T17:06:19.537Z,13
2018-02-19T17:08:19.326Z,7.7
2018-02-19T17:10:19.628Z,13.6
2018-02-19T17:12:19.384Z,13.3
2018-02-19T17:14:19.185Z,9
2018-02-19T17:16:19.275Z,10.2
2018-02-19T17:18:19.207Z,10.9
2018-02-19T17:20:19.039Z,13.2
2018-02-19T17:22:18.810Z,11
2018-02-19T17:24:19.578Z,11.6
2018-02-19T17:26:19.236Z,9.4
2018-02-19T17:28:18.991Z,9.4
2018-02-19T17:30:18.752Z,9.4
2018-02-19T17:32:19.545Z,12.9
2018-02-19T17:34:19.334Z,15.5
2018-02-19T17:36:18.851Z,14.8
2018-02-19T17:38:19.636Z,12.4
2018-02-19T17:40:18.854Z,15.6
2018-02-19T17:42:19.639Z,16.6
2018-02-19T17:44:19.412Z,12.5
2018-02-19T17:46:19.010Z,16.2
2018-02-19T17:48:18.758Z,14.1
2018-02-19T17:50:19.563Z,15.2
2018-02-19T17:52:19.327Z,11.7
2018-02-19T17:54:19.103Z,15.2
2018-02-19T17:56:19.181Z,20.3
2018-02-19T17:58:18.941Z,16.4
2018-02-19T18:00:18.718Z,15.6
2018-02-19T18:02:19.479Z,19.5
2018-02-19T18:04:19.234Z,14.1
2018-02-19T18:06:18.821Z,18.2
2018-02-19T18:08:19.582Z,19.5
2018-02-19T18:10:18.790Z,14.5
2018-02-19T18:12:19.584Z,13.9
2018-02-19T18:14:19.349Z,11.1
2018-02-19T18:16:18.879Z,13.3
2018-02-19T18:18:18.756Z,20.7
2018-02-19T18:20:19.539Z,13.3
2018-02-19T18:22:19.281Z,17
2018-02-19T18:24:19.056Z,18
2018-02-19T18:26:19.285Z,16.6
2018-02-19T18:28:19.074Z,30.4
2018-02-19T18:30:18.939Z,22.1
2018-02-19T18:32:18.705Z,24.8
2018-02-19T18:34:19.478Z,25.4
2018-02-19T18:36:19.084Z,17.8
2018-02-19T18:38:18.836Z,17
2018-02-19T18:40:19.136Z,20.5
2018-02-19T18:42:18.911Z,24
2018-02-19T18:44:19.695Z,25.7
2018-02-19T18:46:19.423Z,18.5
2018-02-19T18:48:19.229Z,17.2
2018-02-19T18:50:18.977Z,21.3
2018-02-19T18:52:18.770Z,16.7
2018-02-19T18:54:19.526Z,18.7
2018-02-19T18:56:19.088Z,23.6
2018-02-19T18:58:18.828Z,19.6
2018-02-19T19:00:19.571Z,12.8
2018-02-19T19:02:19.329Z,16.3
2018-02-19T19:04:19.134Z,15
2018-02-19T19:06:19.686Z,20.5
2018-02-19T19:08:19.459Z,18.8
2018-02-19T19:10:18.799Z,25.8
2018-02-19T19:12:19.571Z,18.9
2018-02-19T19:14:19.346Z,22.9
2018-02-19T19:16:19.023Z,23.2
2018-02-19T19:18:18.854Z,16.8
2018-02-19T19:20:19.609Z,20.7
2018-02-19T19:22:19.387Z,16
2018-02-19T19:24:19.157Z,22.5
2018-02-19T19:26:19.203Z,19.9
2018-02-19T19:28:18.931Z,23.6
2018-02-19T19:30:19.707Z,12.2
2018-02-19T19:32:19.475Z,15.3
2018-02-19T19:34:19.237Z,21.4
2018-02-19T19:36:18.876Z,20.6
2018-02-19T19:38:19.653Z,20.5
2018-02-19T19:40:18.924Z,30.6
2018-02-19T19:42:18.710Z,17.4
2018-02-19T19:44:19.479Z,18
2018-02-19T19:46:19.094Z,23.1
2018-02-19T19:48:18.865Z,26.2
2018-02-19T19:50:19.671Z,26.3
2018-02-19T19:52:19.439Z,20.6
2018-02-19T19:54:19.213Z,16.4
2018-02-19T19:56:18.798Z,24.2
2018-02-19T19:58:19.558Z,23
2018-02-19T20:00:19.413Z,20.2
2018-02-19T20:02:19.188Z,22
2018-02-19T20:04:18.968Z,24.4
2018-02-19T20:06:19.048Z,22.7
2018-02-19T20:08:18.793Z,25
2018-02-19T20:10:19.023Z,33.6
2018-02-19T20:12:18.774Z,22.6
2018-02-19T20:14:19.549Z,27.8
2018-02-19T20:16:19.630Z,20.4
2018-02-19T20:18:19.465Z,30.3
2018-02-19T20:20:19.249Z,21.2
2018-02-19T20:22:19.033Z,25.2
2018-02-19T20:24:18.845Z,27.3
2018-02-19T20:26:19.455Z,22.2
2018-02-19T20:28:19.249Z,23.7
2018-02-19T20:30:18.994Z,23.3
2018-02-19T20:32:18.763Z,21.3
2018-02-19T20:34:19.543Z,30.1
2018-02-19T20:36:19.080Z,31.3
2018-02-19T20:38:18.849Z,18.6
2018-02-19T20:40:19.101Z,20.8
2018-02-19T20:42:18.914Z,24
2018-02-19T20:44:19.702Z,21.7
2018-02-19T20:46:19.370Z,22
2018-02-19T20:48:19.148Z,27.3
2018-02-19T20:50:18.910Z,27.2
2018-02-19T20:52:19.665Z,21.4
2018-02-19T20:54:19.432Z,22.5
2018-02-19T20:56:19.688Z,24.7
2018-02-19T20:58:19.529Z,25.7
2018-02-19T21:00:19.312Z,17.9
2018-02-19T21:02:19.122Z,32.3
2018-02-19T21:04:18.892Z,33
2018-02-19T21:06:19.006Z,27.3
2018-02-19T21:08:18.762Z,31.2
2018-02-19T21:10:19.136Z,22.5
2018-02-19T21:12:18.911Z,27.2
2018-02-19T21:14:19.668Z,21.4
2018-02-19T21:16:19.231Z,16.9
2018-02-19T21:18:19.126Z,17.6
2018-02-19T21:20:18.898Z,23.4
2018-02-19T21:22:19.689Z,21.1
2018-02-19T21:24:19.501Z,23.8
2018-02-19T21:26:19.066Z,21.4
2018-02-19T21:28:18.831Z,20.8
2018-02-19T21:30:19.606Z,22.3
2018-02-19T21:32:19.371Z,18.7
2018-02-19T21:34:19.174Z,32.6
2018-02-19T21:36:19.378Z,23.6
2018-02-19T21:38:19.152Z,18.7
2018-02-19T21:40:19.387Z,21.1
2018-02-19T21:42:19.161Z,15.9
2018-02-19T21:44:18.926Z,20
2018-02-19T21:46:19.021Z,24.3
2018-02-19T21:48:18.803Z,25.4
2018-02-19T21:50:19.580Z,19.8
2018-02-19T21:52:19.343Z,24
2018-02-19T21:54:19.113Z,23.9
2018-02-19T21:56:19.336Z,21.2
2018-02-19T21:58:19.104Z,19.7
2018-02-19T22:00:18.903Z,28.8
2018-02-19T22:02:19.664Z,22
2018-02-19T22:04:19.424Z,24.8
2018-02-19T22:06:19.033Z,17.6
2018-02-19T22:08:18.784Z,22.2
2018-02-19T22:10:19.036Z,22.4
2018-02-19T22:12:18.803Z,19
2018-02-19T22:14:19.575Z,18.4
2018-02-19T22:16:19.691Z,22.7
2018-02-19T22:18:19.527Z,19.8
2018-02-19T22:20:19.265Z,22.1
2018-02-19T22:22:18.845Z,22.8
2018-02-19T22:24:19.604Z,23
2018-02-19T22:26:19.676Z,23
2018-02-19T22:28:19.440Z,22.7
2018-02-19T22:30:19.334Z,19.9
2018-02-19T22:32:19.103Z,21.1
2018-02-19T22:34:18.847Z,27.6
2018-02-19T22:36:19.029Z,20.9
2018-02-19T22:38:18.777Z,21.6
2018-02-19T22:40:19.034Z,21.7
2018-02-19T22:42:18.776Z,29.9
2018-02-19T22:44:19.562Z,25.2
2018-02-19T22:46:18.706Z,21.3
2018-02-19T22:48:19.472Z,24.8
2018-02-19T22:50:19.235Z,27
2018-02-19T22:52:19.006Z,24.7
2018-02-19T22:54:18.764Z,19.8
2018-02-19T22:56:19.308Z,23.5
2018-02-19T22:58:19.066Z,22.6
2018-02-19T23:00:18.810Z,22.3
2018-02-19T23:02:19.560Z,19.2
2018-02-19T23:04:19.327Z,22.6
2018-02-19T23:06:19.413Z,20.3
2018-02-19T23:08:19.191Z,21.6
2018-02-19T23:10:19.395Z,28.1
2018-02-19T23:12:19.142Z,22.8
2018-02-19T23:14:18.888Z,18.3
2018-02-19T23:16:19.546Z,17.3
2018-02-19T23:18:19.402Z,16.2
2018-02-19T23:20:19.199Z,25.9
2018-02-19T23:22:18.971Z,23.8
2018-02-19T23:24:18.703Z,21.8
2018-02-19T23:26:19.258Z,20.1
2018-02-19T23:28:19.027Z,23.5
2018-02-19T23:30:18.803Z,25.2
2018-02-19T23:32:19.559Z,19.9
2018-02-19T23:34:19.333Z,23.1
2018-02-19T23:36:18.870Z,26.5
2018-02-19T23:38:19.628Z,23.2
2018-02-19T23:40:18.853Z,19.1
2018-02-19T23:42:19.621Z,19.8
2018-02-19T23:44:19.392Z,22.2
2018-02-19T23:46:18.982Z,18
2018-02-19T23:48:18.756Z,16.5
2018-02-19T23:50:19.538Z,22.2
2018-02-19T23:52:19.288Z,23.4
2018-02-19T23:54:19.050Z,31.4
2018-02-19T23:56:19.245Z,19.7
2018-02-19T23:58:19.011Z,18.9
